Startpagina
METAR-TAF:

METAR-TAF

Vliegvelden :

Luchthaven Oslo Gardermoen

Oslo, Noorwegen

breedte: 60-12N, lengte: 011-05E, hoogte: 208 m

Actueel weer

Dit bericht is 32 minuten geleden gemaakt, om 20:50 UTC
Wind 7 kt uit het zuiden
Temperatuur 19°C
Vochtigheid 64%
Druk 1005 hPa
Zicht 10 km of meer
geen wolken onder 1500 m en geen cumulonimbus

METAR: ENGM 212050Z 18007KT CAVOK 19/12 Q1005 NOSIG

Tijdstip: 23:22 (21:22 UTC)

Verwachting

Verwachting geldig van 21 om 18 UTC tot 22 om 18 UTC
Wind 10 kt uit het zuiden
Zicht 10 km of meer
geen wolken onder 1500 m en geen cumulonimbus
Wijzigt naar
van 21 om 21 UTC tot 21 om 23 UTC
Wind 5 kt uit variabele richting
Kans 40%
van 22 om 00 UTC tot 22 om 07 UTC
Zicht: 1500 m
Gebroken wolken op 200 ft
mistbanken
Wijzigt naar
van 22 om 09 UTC tot 22 om 11 UTC
Wind 10 kt uit het zuiden

TAF: ENGM 2118/2218 18010KT CAVOK BECMG 2121/2123 VRB05KT PROB40 2200/2207 1500 BCFG BKN002 BECMG 2209/2211 18010KT

Waarnemingen en weersverwachtingen van meer dan 4000 vliegvelden (METAR en TAF).

De beschikbare stations zijn de gele en rode punten op de kaart.

Ga met uw muis naar het station om de naam te zien.

Klik dan om waarnemingen en weersverwachtingen te zien.

kaart wijzigen: klik op de groene knoppen met een zwart kruis om in te zoomen, op de groene knop met een streepje om uit te zoomen of op de groene pijlen voor aangrenzende kaarten.


METAR-TAF: